Time;durP1;ratioP1;P1;durP2;ratioP2;P2;SDS_P1;SDS_P2;PMS_P1;PMS_P2;Temp;Humidity;BMP_temperature;BMP_pressure;BME280_temperature;BME280_humidity;BME280_pressure;Samples;Min_cycle;Max_cycle;Signal;HPM_P1;HPM_P2
2023/03/06 00:02:02;;;;;;;7.82;3.97;;;;;;;12.21;43.76;100698.34;4974612;28;20090;-62
2023/03/06 00:04:27;;;;;;;14.15;5.10;;;;;;;12.21;43.13;100701.88;4974926;28;20026;-61
2023/03/06 00:06:53;;;;;;;10.15;4.43;;;;;;;12.21;43.83;100701.88;4958505;28;20074;-62
2023/03/06 00:09:18;;;;;;;7.68;4.07;;;;;;;12.21;43.66;100692.97;4975658;28;20117;-61
2023/03/06 00:11:44;;;;;;;8.45;4.15;;;;;;;12.17;44.36;100681.66;4974228;28;20561;-61
2023/03/06 00:14:09;;;;;;;5.85;3.90;;;;;;;12.10;44.10;100669.81;4974289;28;20041;-61
2023/03/06 00:16:34;;;;;;;9.52;4.63;;;;;;;12.08;43.80;100660.22;4972832;28;20031;-61
2023/03/06 00:19:00;;;;;;;13.82;4.65;;;;;;;12.14;43.88;100673.88;4975727;28;20030;-61
2023/03/06 00:21:25;;;;;;;10.02;4.43;;;;;;;12.14;43.54;100679.25;4976627;28;20094;-60
2023/03/06 00:23:50;;;;;;;11.43;4.75;;;;;;;12.13;44.13;100674.91;4975690;28;20417;-61
2023/03/06 00:26:16;;;;;;;8.90;4.63;;;;;;;12.12;43.48;100669.66;4975559;28;20219;-61
2023/03/06 00:28:42;;;;;;;8.20;4.63;;;;;;;12.12;43.65;100661.59;4977349;28;20031;-61
2023/03/06 00:31:07;;;;;;;12.52;4.82;;;;;;;12.05;43.83;100650.59;4975286;28;20054;-60
2023/03/06 00:33:32;;;;;;;9.25;4.70;;;;;;;12.12;43.33;100667.81;4975403;28;20034;-61
2023/03/06 00:35:58;;;;;;;8.73;5.00;;;;;;;12.13;43.89;100663.31;4959395;28;20042;-60
2023/03/06 00:38:26;;;;;;;11.25;4.55;;;;;;;12.12;43.74;100664.28;4975418;28;20513;-61
2023/03/06 00:40:51;;;;;;;12.57;5.65;;;;;;;12.11;43.98;100655.41;4975687;28;20431;-61
2023/03/06 00:43:17;;;;;;;9.00;4.45;;;;;;;12.14;43.74;100649.72;4975304;28;20058;-60
2023/03/06 00:45:42;;;;;;;9.75;4.88;;;;;;;12.12;43.68;100650.84;4975249;28;20097;-61
2023/03/06 00:48:07;;;;;;;13.63;5.10;;;;;;;12.11;43.26;100649.19;4975190;28;20121;-60
2023/03/06 00:50:34;;;;;;;10.40;5.47;;;;;;;12.03;43.87;100641.81;4975436;28;20031;-61
2023/03/06 00:52:59;;;;;;;9.40;4.43;;;;;;;11.97;44.00;100631.69;4974687;28;20030;-61
2023/03/06 00:55:25;;;;;;;11.55;5.30;;;;;;;12.04;44.08;100645.34;4960238;28;20364;-61
2023/03/06 00:57:50;;;;;;;9.40;5.10;;;;;;;12.03;43.48;100632.94;4958837;28;20046;-61
2023/03/06 01:00:16;;;;;;;6.72;4.63;;;;;;;11.96;43.59;100619.25;4958816;28;20118;-61
2023/03/06 01:02:41;;;;;;;9.52;5.20;;;;;;;12.04;44.60;100624.75;4974770;28;20030;-61
2023/03/06 01:05:07;;;;;;;12.00;5.03;;;;;;;12.03;44.17;100631.09;4942717;28;20035;-61
2023/03/06 01:07:35;;;;;;;11.55;6.20;;;;;;;11.88;44.52;100600.31;4959000;28;20458;-62
2023/03/06 01:10:00;;;;;;;9.32;5.05;;;;;;;12.05;44.19;100621.06;4958946;28;20046;-61
2023/03/06 01:12:26;;;;;;;12.45;6.13;;;;;;;12.05;44.15;100628.28;4958593;28;20043;-62
2023/03/06 01:14:51;;;;;;;12.38;6.35;;;;;;;12.03;44.12;100625.72;4958695;28;20038;-60
2023/03/06 01:17:17;;;;;;;10.07;5.75;;;;;;;12.06;43.95;100625.44;4974548;28;20035;-60
2023/03/06 01:19:42;;;;;;;14.68;5.80;;;;;;;12.03;43.80;100620.34;4958991;28;20038;-61
2023/03/06 01:22:07;;;;;;;13.00;6.68;;;;;;;11.93;44.07;100600.72;4974666;28;20039;-61
2023/03/06 01:24:33;;;;;;;12.00;5.55;;;;;;;12.06;44.40;100614.69;4974517;28;20053;-61
2023/03/06 01:26:58;;;;;;;14.15;6.25;;;;;;;12.06;44.57;100620.06;4974522;28;20101;-61
2023/03/06 01:29:25;;;;;;;15.60;6.03;;;;;;;12.07;43.99;100605.66;4975505;28;20042;-61
2023/03/06 01:31:50;;;;;;;13.40;6.15;;;;;;;12.07;44.37;100602.13;4974789;28;20072;-61
2023/03/06 01:34:16;;;;;;;16.80;7.35;;;;;;;12.07;44.28;100600.28;4958569;28;20042;-61
2023/03/06 01:36:41;;;;;;;15.32;6.53;;;;;;;12.08;44.17;100602.00;4974534;28;20041;-60
2023/03/06 01:39:07;;;;;;;14.00;6.60;;;;;;;12.07;44.72;100594.06;4958611;28;20039;-60
2023/03/06 01:41:32;;;;;;;13.93;6.55;;;;;;;12.03;44.27;100593.50;4975137;28;20398;-61
2023/03/06 01:43:58;;;;;;;12.48;6.47;;;;;;;12.05;43.84;100596.06;4975606;28;20037;-61
2023/03/06 01:46:43;;;;;;;18.83;7.60;;;;;;;12.04;44.23;100597.03;4974870;28;20530;-61
2023/03/06 01:49:18;;;;;;;14.93;6.97;;;;;;;12.02;44.45;100591.81;4975558;28;20050;-61
2023/03/06 01:51:47;;;;;;;14.82;6.80;;;;;;;12.01;44.58;100584.75;4958238;28;20035;-61
2023/03/06 01:54:34;;;;;;;14.30;6.68;;;;;;;12.00;43.98;100583.09;4975383;28;20059;-61
2023/03/06 01:57:11;;;;;;;17.42;7.57;;;;;;;12.00;44.50;100587.59;4973449;28;20178;-61
2023/03/06 01:59:37;;;;;;;21.80;8.95;;;;;;;11.93;43.78;100565.84;4957740;28;20027;-61
2023/03/06 02:02:05;;;;;;;17.33;7.97;;;;;;;12.02;44.44;100581.09;4973675;28;20034;-61
2023/03/06 02:04:30;;;;;;;16.33;7.15;;;;;;;12.03;44.27;100577.41;4957202;28;20117;-61
2023/03/06 02:06:58;;;;;;;19.05;8.18;;;;;;;12.01;44.04;100576.69;4973536;28;20030;-61
2023/03/06 02:09:28;;;;;;;22.02;8.20;;;;;;;12.00;44.25;100569.66;4973697;28;20039;-61
2023/03/06 02:11:54;;;;;;;18.13;7.43;;;;;;;12.02;44.32;100566.81;4958415;28;20034;-61
2023/03/06 02:14:19;;;;;;;18.33;7.93;;;;;;;11.94;43.63;100551.44;4973734;28;20054;-61
2023/03/06 02:16:44;;;;;;;18.33;7.43;;;;;;;11.95;44.16;100550.44;4975173;28;20479;-61
2023/03/06 02:19:24;;;;;;;25.60;8.13;;;;;;;12.03;44.46;100560.47;4957302;28;20415;-61
2023/03/06 02:21:50;;;;;;;15.70;7.00;;;;;;;12.02;44.13;100559.63;4973489;28;20499;-61
2023/03/06 02:24:37;;;;;;;18.08;8.27;;;;;;;11.94;44.39;100543.41;4955905;28;20031;-61
2023/03/06 02:27:03;;;;;;;19.35;8.43;;;;;;;12.00;44.24;100556.25;4974656;28;20039;-61
2023/03/06 02:29:29;;;;;;;19.77;8.75;;;;;;;12.00;44.13;100556.25;4973047;28;20430;-61
2023/03/06 02:31:55;;;;;;;22.48;8.48;;;;;;;12.00;44.14;100558.06;4972917;28;20058;-61
2023/03/06 02:34:20;;;;;;;21.23;9.23;;;;;;;12.00;44.50;100555.38;4957646;28;20035;-61
2023/03/06 02:37:07;;;;;;;16.63;8.07;;;;;;;11.98;44.61;100562.72;4973246;28;20035;-61
2023/03/06 02:39:36;;;;;;;18.63;8.40;;;;;;;11.98;44.33;100560.88;4973265;28;20054;-61
2023/03/06 02:42:01;;;;;;;24.15;9.32;;;;;;;11.98;44.27;100557.34;4974504;28;20037;-62
2023/03/06 02:44:27;;;;;;;22.80;8.52;;;;;;;11.98;44.62;100555.50;4972995;28;20035;-60
2023/03/06 02:46:53;;;;;;;21.73;9.55;;;;;;;11.96;44.70;100549.44;4957193;28;20034;-62
2023/03/06 02:49:18;;;;;;;22.50;9.75;;;;;;;11.94;44.63;100546.06;4974627;28;20055;-61
2023/03/06 02:51:43;;;;;;;19.80;9.25;;;;;;;11.93;44.18;100544.38;4956833;28;20030;-61
2023/03/06 02:54:09;;;;;;;21.00;10.15;;;;;;;11.93;44.97;100539.00;4973005;28;20069;-61
2023/03/06 02:56:35;;;;;;;28.25;9.25;;;;;;;11.91;44.64;100538.31;4972970;28;20117;-61
2023/03/06 02:59:00;;;;;;;19.52;9.30;;;;;;;11.89;45.05;100532.22;4956882;28;20114;-61
2023/03/06 03:01:26;;;;;;;21.52;9.60;;;;;;;11.87;44.94;100531.53;4974412;28;20038;-61
2023/03/06 03:03:51;;;;;;;23.20;9.32;;;;;;;11.89;44.39;100542.13;4972927;28;20042;-61
2023/03/06 03:06:16;;;;;;;26.25;9.70;;;;;;;11.78;44.32;100518.97;4956855;28;20027;-61
2023/03/06 03:08:42;;;;;;;22.13;10.65;;;;;;;11.82;44.38;100528.44;4972738;28;20062;-61
2023/03/06 03:11:08;;;;;;;27.02;10.15;;;;;;;11.83;44.70;100532.81;4956852;28;20023;-61
2023/03/06 03:13:33;;;;;;;21.88;9.65;;;;;;;11.70;44.14;100512.66;4973662;28;20081;-61
2023/03/06 03:16:16;;;;;;;21.45;9.50;;;;;;;11.83;44.63;100532.81;4975180;28;20031;-61
2023/03/06 03:18:46;;;;;;;;;;;;;;;11.83;44.58;100535.50;4977378;28;20038;-61
2023/03/06 03:21:13;;;;;;;24.33;9.85;;;;;;;11.82;44.32;100532.94;4976687;28;19921;-61
2023/03/06 03:23:39;;;;;;;26.50;8.85;;;;;;;11.68;45.08;100507.38;4976700;28;20510;-61
2023/03/06 03:26:10;;;;;;;19.63;9.50;;;;;;;11.82;44.42;100523.06;4976543;28;20062;-61
2023/03/06 03:28:36;;;;;;;24.30;9.73;;;;;;;11.84;44.48;100521.06;4960781;28;20026;-61
2023/03/06 03:31:06;;;;;;;21.30;9.13;;;;;;;11.78;43.96;100518.16;4976540;28;20038;-60
2023/03/06 03:33:31;;;;;;;22.52;9.88;;;;;;;11.77;44.00;100506.56;4977735;28;20528;-61
2023/03/06 03:35:58;;;;;;;23.20;9.75;;;;;;;11.83;44.26;100511.34;4960324;28;20038;-60
2023/03/06 03:38:23;;;;;;;26.42;10.13;;;;;;;11.82;44.68;100506.13;4976514;28;20110;-61
2023/03/06 03:40:49;;;;;;;26.90;10.38;;;;;;;11.80;44.57;100497.38;4960788;28;20113;-61
2023/03/06 03:43:14;;;;;;;29.83;10.30;;;;;;;11.81;44.42;100502.56;4977587;28;20514;-60
2023/03/06 03:45:39;;;;;;;22.50;10.23;;;;;;;11.83;44.27;100497.94;4976370;28;20038;-61
2023/03/06 03:48:05;;;;;;;23.65;9.55;;;;;;;11.83;44.28;100499.78;4960038;28;20035;-61
2023/03/06 03:50:32;;;;;;;23.92;10.60;;;;;;;11.80;44.87;100486.63;4960321;28;20035;-61
2023/03/06 03:52:57;;;;;;;27.30;10.43;;;;;;;11.77;44.02;100471.69;4976342;28;20066;-60
2023/03/06 03:55:22;;;;;;;23.40;10.38;;;;;;;11.78;44.27;100476.03;4977215;28;20113;-60
2023/03/06 03:57:48;;;;;;;21.30;9.15;;;;;;;11.66;44.86;100466.44;4961120;28;20049;-60
2023/03/06 04:00:15;;;;;;;30.17;9.88;;;;;;;11.77;45.11;100469.00;4945798;28;20047;-61
2023/03/06 04:02:42;;;;;;;21.45;9.50;;;;;;;11.78;44.63;100461.81;4976370;28;20593;-61
2023/03/06 04:05:08;;;;;;;21.88;9.70;;;;;;;11.78;44.54;100462.63;4975933;28;20065;-61
2023/03/06 04:07:33;;;;;;;31.40;11.18;;;;;;;11.70;43.95;100440.22;4977811;28;20077;-61
2023/03/06 04:09:59;;;;;;;20.67;9.27;;;;;;;11.76;44.23;100461.94;4959830;28;20118;-61
2023/03/06 04:12:24;;;;;;;21.65;8.60;;;;;;;11.76;44.72;100456.56;4975994;28;20050;-61
2023/03/06 04:14:49;;;;;;;20.98;9.95;;;;;;;11.67;43.82;100443.97;4976026;28;20038;-61
2023/03/06 04:17:15;;;;;;;20.40;9.43;;;;;;;11.77;44.25;100463.63;4975909;28;20439;-61
2023/03/06 04:19:40;;;;;;;22.20;9.52;;;;;;;11.78;44.38;100459.94;4976165;28;20088;-61
2023/03/06 04:22:05;;;;;;;20.55;8.85;;;;;;;11.77;44.40;100460.94;4975646;28;20387;-61
2023/03/06 04:24:31;;;;;;;18.85;9.30;;;;;;;11.74;44.26;100457.69;4975592;28;20039;-61
2023/03/06 04:26:56;;;;;;;23.98;9.52;;;;;;;11.75;44.02;100454.88;4976527;28;20035;-61
2023/03/06 04:29:22;;;;;;;22.60;10.02;;;;;;;11.74;44.43;100458.56;4974680;28;20050;-61
2023/03/06 04:31:47;;;;;;;21.40;9.88;;;;;;;11.74;44.14;100453.19;4959535;28;20102;-62
2023/03/06 04:34:12;;;;;;;17.98;8.00;;;;;;;11.71;44.71;100448.09;4975672;28;20042;-60
2023/03/06 04:36:38;;;;;;;23.83;10.05;;;;;;;11.70;44.32;100443.72;4959292;28;20065;-60
2023/03/06 04:39:03;;;;;;;24.25;11.05;;;;;;;11.54;44.28;100424.69;4976819;28;20097;-61
2023/03/06 04:41:29;;;;;;;23.55;9.13;;;;;;;11.71;44.09;100448.09;4959173;28;20038;-60
2023/03/06 04:43:54;;;;;;;23.77;10.43;;;;;;;11.68;44.47;100443.00;4959498;28;20469;-61
2023/03/06 04:46:20;;;;;;;22.55;10.25;;;;;;;11.60;44.46;100435.69;4977207;28;20105;-61
2023/03/06 04:48:46;;;;;;;23.35;10.13;;;;;;;11.64;44.53;100447.81;4959298;28;20541;-61
2023/03/06 04:51:12;;;;;;;26.48;10.20;;;;;;;11.62;44.11;100438.22;4958956;28;20039;-61
2023/03/06 04:53:38;;;;;;;26.10;10.48;;;;;;;11.61;44.54;100445.41;4975175;28;20034;-61
2023/03/06 04:56:03;;;;;;;24.05;9.95;;;;;;;11.57;44.13;100440.50;4975066;28;20413;-62
2023/03/06 04:58:29;;;;;;;24.52;9.52;;;;;;;11.56;44.23;100450.38;4976694;28;20043;-62
2023/03/06 05:00:54;;;;;;;24.88;11.10;;;;;;;11.53;44.46;100444.47;4942862;28;20035;-61
2023/03/06 05:03:20;;;;;;;23.35;10.18;;;;;;;11.45;43.82;100428.22;4974848;28;20043;-61
2023/03/06 05:05:45;;;;;;;28.77;9.80;;;;;;;11.51;44.39;100452.66;4958772;28;20110;-61
2023/03/06 05:08:14;;;;;;;24.23;10.75;;;;;;;11.50;43.81;100452.81;4974916;28;20454;-62
2023/03/06 05:10:39;;;;;;;25.92;9.68;;;;;;;11.49;44.11;100448.41;4975172;28;20037;-61
2023/03/06 05:13:05;;;;;;;21.55;10.27;;;;;;;11.47;44.30;100453.09;4974694;28;20122;-61
2023/03/06 05:15:30;;;;;;;25.52;10.20;;;;;;;11.38;44.18;100438.69;4958725;28;20035;-61
2023/03/06 05:17:55;;;;;;;27.38;10.57;;;;;;;11.40;44.33;100438.53;4974533;28;20053;-61
2023/03/06 05:20:21;;;;;;;29.73;9.85;;;;;;;11.47;44.36;100448.53;4974648;28;20033;-62
2023/03/06 05:22:46;;;;;;;23.95;10.65;;;;;;;11.49;44.45;100448.41;4975176;28;20026;-62
2023/03/06 05:25:12;;;;;;;26.83;11.55;;;;;;;11.49;44.22;100443.06;4975991;28;20104;-62
2023/03/06 05:27:38;;;;;;;27.70;9.82;;;;;;;11.51;43.94;100446.44;4958366;28;20061;-61
2023/03/06 05:30:04;;;;;;;24.23;10.20;;;;;;;11.51;44.03;100451.78;4976159;28;20035;-61
2023/03/06 05:32:29;;;;;;;29.58;11.70;;;;;;;11.49;44.10;100443.91;4959907;28;20093;-61
2023/03/06 05:34:55;;;;;;;27.63;10.60;;;;;;;11.49;44.20;100443.06;4975736;28;20464;-62
2023/03/06 05:37:21;;;;;;;28.05;11.35;;;;;;;11.47;44.19;100439.69;4976046;28;20045;-61
2023/03/06 05:39:47;;;;;;;24.92;10.68;;;;;;;11.45;44.38;100437.13;4974541;28;20082;-61
2023/03/06 05:42:12;;;;;;;27.98;10.70;;;;;;;11.44;44.08;100434.59;4974460;28;20035;-61
2023/03/06 05:44:38;;;;;;;25.35;10.90;;;;;;;11.34;43.60;100414.97;4975673;28;20031;-61
2023/03/06 05:47:04;;;;;;;23.10;10.15;;;;;;;11.41;44.13;100440.25;4942105;28;20085;-61
2023/03/06 05:49:33;;;;;;;24.83;11.35;;;;;;;11.39;44.28;100426.16;4958245;28;20467;-61
2023/03/06 05:51:59;;;;;;;27.27;10.73;;;;;;;11.28;43.65;100421.78;4974197;28;20030;-61
2023/03/06 05:54:25;;;;;;;23.23;11.07;;;;;;;11.34;44.27;100444.47;4958044;28;20038;-62
2023/03/06 05:56:51;;;;;;;30.65;10.02;;;;;;;11.23;44.05;100425.88;4974013;28;20054;-62
2023/03/06 05:59:16;;;;;;;31.17;11.70;;;;;;;11.21;43.69;100422.50;4973940;28;20090;-61
2023/03/06 06:01:42;;;;;;;26.70;10.90;;;;;;;11.27;44.42;100438.88;4958178;28;20060;-62
2023/03/06 06:04:08;;;;;;;26.83;11.13;;;;;;;11.24;43.83;100443.66;4974883;28;20035;-61
2023/03/06 06:06:33;;;;;;;27.10;10.52;;;;;;;11.10;44.46;100420.81;4957699;28;20034;-62
2023/03/06 06:08:58;;;;;;;30.88;11.52;;;;;;;11.17;44.02;100434.50;4973547;28;20410;-62
2023/03/06 06:11:24;;;;;;;29.55;12.45;;;;;;;11.13;44.07;100439.31;4973815;28;20058;-62
2023/03/06 06:13:49;;;;;;;28.90;12.18;;;;;;;11.08;43.40;100430.84;4974106;28;20034;-62
2023/03/06 06:16:15;;;;;;;32.78;11.43;;;;;;;10.98;44.49;100417.44;4957580;28;20118;-61
2023/03/06 06:18:41;;;;;;;30.92;12.23;;;;;;;10.97;44.47;100423.78;4957410;28;20446;-61
2023/03/06 06:21:08;;;;;;;35.35;11.77;;;;;;;11.03;43.52;100431.25;4957739;28;20438;-62
2023/03/06 06:23:33;;;;;;;31.27;12.18;;;;;;;10.90;44.22;100414.63;4973546;28;20034;-62
2023/03/06 06:26:02;;;;;;;23.45;10.45;;;;;;;10.97;43.93;100431.81;4957493;28;20505;-61
2023/03/06 06:28:28;;;;;;;31.85;12.07;;;;;;;10.94;43.89;100440.13;4957432;28;20027;-61
2023/03/06 06:30:54;;;;;;;29.92;10.52;;;;;;;10.92;43.53;100442.13;4973385;28;20104;-61
2023/03/06 06:33:19;;;;;;;28.33;11.27;;;;;;;10.92;44.01;100439.44;4974399;28;20122;-61
2023/03/06 06:35:44;;;;;;;30.17;11.65;;;;;;;10.92;44.37;100436.75;4973320;28;20047;-61
2023/03/06 06:38:10;;;;;;;34.60;11.27;;;;;;;10.95;43.97;100441.84;4957239;28;20443;-61
2023/03/06 06:40:35;;;;;;;26.13;11.75;;;;;;;10.97;43.91;100447.88;4973505;28;20035;-61
2023/03/06 06:43:00;;;;;;;27.95;12.10;;;;;;;10.97;43.85;100447.06;4972119;28;20050;-61
2023/03/06 06:45:26;;;;;;;27.45;11.27;;;;;;;10.90;43.72;100430.69;4973190;28;20459;-61
2023/03/06 06:47:51;;;;;;;27.90;11.32;;;;;;;11.01;44.42;100437.75;4973038;28;20113;-62
2023/03/06 06:50:17;;;;;;;28.35;10.80;;;;;;;11.03;44.21;100444.66;4972554;28;20039;-61
2023/03/06 06:52:42;;;;;;;34.70;11.15;;;;;;;11.07;43.92;100437.19;4973392;28;20521;-61
2023/03/06 06:55:08;;;;;;;27.00;10.43;;;;;;;11.07;44.34;100437.19;4972944;28;20498;-61
2023/03/06 06:57:34;;;;;;;27.40;11.07;;;;;;;11.00;44.05;100420.81;4973085;28;20035;-61
2023/03/06 06:59:59;;;;;;;26.65;11.27;;;;;;;11.03;43.66;100420.53;4941015;28;20035;-62
2023/03/06 07:02:24;;;;;;;32.47;11.55;;;;;;;11.14;44.30;100437.47;4973024;28;20026;-63
2023/03/06 07:04:50;;;;;;;28.67;10.73;;;;;;;11.20;43.88;100442.22;4941240;28;20040;-61
2023/03/06 07:07:15;;;;;;;28.02;11.77;;;;;;;11.26;43.55;100444.34;4973012;28;20053;-62
2023/03/06 07:09:41;;;;;;;29.60;11.85;;;;;;;11.16;44.16;100424.75;4956681;28;20046;-62
2023/03/06 07:12:07;;;;;;;33.15;12.55;;;;;;;11.31;43.97;100444.75;4974099;28;20045;-62
2023/03/06 07:14:32;;;;;;;28.58;10.90;;;;;;;11.25;43.92;100434.63;4956727;28;20039;-61
2023/03/06 07:16:58;;;;;;;27.45;11.70;;;;;;;11.37;44.02;100442.38;4972764;28;20037;-62
2023/03/06 07:19:23;;;;;;;29.92;11.27;;;;;;;11.33;43.84;100432.94;4973128;28;20486;-61
2023/03/06 07:21:49;;;;;;;28.10;11.48;;;;;;;11.49;44.15;100448.41;4972184;28;20035;-61
2023/03/06 07:24:14;;;;;;;28.92;12.80;;;;;;;11.56;43.41;100441.47;4973837;28;20537;-62
2023/03/06 07:26:45;;;;;;;28.20;11.48;;;;;;;11.73;44.40;100454.16;4972486;28;20061;-62
2023/03/06 07:29:10;;;;;;;24.50;12.00;;;;;;;11.91;43.54;100444.38;4972530;28;20113;-61
2023/03/06 07:31:35;;;;;;;33.25;11.55;;;;;;;12.01;43.92;100429.06;4956785;28;20480;-62
2023/03/06 07:34:01;;;;;;;27.42;11.88;;;;;;;12.07;43.18;100427.63;4956702;28;20118;-62
2023/03/06 07:36:26;;;;;;;29.00;12.13;;;;;;;12.17;44.00;100442.69;4972598;28;20039;-62
2023/03/06 07:38:52;;;;;;;32.55;13.15;;;;;;;12.16;43.53;100441.00;4973532;28;20070;-62
2023/03/06 07:41:17;;;;;;;38.70;13.43;;;;;;;12.20;44.09;100434.34;4969811;28;20073;-62
2023/03/06 07:43:44;;;;;;;34.88;13.43;;;;;;;12.22;43.80;100431.53;4973136;28;20042;-61
2023/03/06 07:46:11;;;;;;;30.85;12.35;;;;;;;12.06;43.35;100416.03;4972566;28;20042;-62
2023/03/06 07:48:37;;;;;;;28.08;12.20;;;;;;;12.24;44.08;100430.38;4956731;28;20066;-62
2023/03/06 07:51:05;;;;;;;27.45;12.43;;;;;;;12.26;44.05;100419.47;4972691;28;20587;-62
2023/03/06 07:53:30;;;;;;;34.10;13.57;;;;;;;12.25;43.40;100432.03;4972557;28;20038;-62
2023/03/06 07:55:56;;;;;;;29.75;12.00;;;;;;;12.16;43.98;100414.16;4940545;28;20450;-62
2023/03/06 07:58:21;;;;;;;29.23;12.45;;;;;;;12.27;43.93;100438.13;4956962;28;20054;-61
2023/03/06 08:00:47;;;;;;;33.88;14.63;;;;;;;12.19;43.82;100421.94;4973775;28;20035;-61
2023/03/06 08:03:13;;;;;;;29.27;12.27;;;;;;;12.31;43.83;100440.53;4958812;28;20046;-62
2023/03/06 08:05:38;;;;;;;30.45;11.45;;;;;;;12.34;44.64;100432.16;4960047;28;20402;-61
2023/03/06 08:08:04;;;;;;;27.95;12.20;;;;;;;12.36;43.99;100438.22;4975901;28;20053;-61
2023/03/06 08:10:30;;;;;;;32.08;11.63;;;;;;;12.32;43.48;100428.75;4960274;28;20027;-61
2023/03/06 08:12:55;;;;;;;30.80;12.77;;;;;;;12.35;43.99;100428.47;4976253;28;20107;-62
2023/03/06 08:15:21;;;;;;;33.47;12.15;;;;;;;12.37;44.23;100430.00;4959878;28;20145;-62
2023/03/06 08:17:46;;;;;;;29.05;13.15;;;;;;;12.42;43.70;100432.25;4960028;28;20061;-62
2023/03/06 08:20:13;;;;;;;27.05;12.05;;;;;;;12.46;43.73;100426.41;4975939;28;20128;-61
2023/03/06 08:22:38;;;;;;;31.65;12.90;;;;;;;12.50;43.27;100432.34;4976260;28;20036;-62
2023/03/06 08:25:05;;;;;;;35.13;12.30;;;;;;;12.51;43.88;100437.56;4975607;28;20410;-62
2023/03/06 08:27:32;;;;;;;29.98;12.45;;;;;;;12.48;43.25;100432.47;4975612;28;20494;-62
2023/03/06 08:29:57;;;;;;;33.28;12.20;;;;;;;12.50;44.58;100440.41;4975288;28;20038;-61
2023/03/06 08:32:23;;;;;;;24.05;11.57;;;;;;;12.48;43.01;100427.09;4959377;28;20506;-61
2023/03/06 08:34:48;;;;;;;32.03;13.00;;;;;;;12.36;44.27;100400.63;4975942;28;20026;-61
2023/03/06 08:37:14;;;;;;;27.25;11.60;;;;;;;12.56;43.56;100431.75;4959057;28;20042;-62
2023/03/06 08:39:39;;;;;;;31.80;12.98;;;;;;;12.59;44.05;100428.75;4959483;28;20038;-62
2023/03/06 08:42:05;;;;;;;27.42;12.80;;;;;;;12.60;43.96;100409.78;4959130;28;20461;-62
2023/03/06 08:44:30;;;;;;;31.75;11.23;;;;;;;12.81;43.74;100426.44;4975180;28;20034;-62
2023/03/06 08:46:56;;;;;;;31.30;12.10;;;;;;;12.84;43.37;100412.69;4974849;28;20038;-62
2023/03/06 08:49:21;;;;;;;32.80;13.15;;;;;;;13.01;43.22;100424.44;4959334;28;20038;-62
2023/03/06 08:51:46;;;;;;;29.80;11.80;;;;;;;13.06;42.70;100424.84;4976280;28;20039;-62
2023/03/06 08:54:12;;;;;;;27.95;12.70;;;;;;;13.10;43.08;100428.94;4974972;28;20466;-63
2023/03/06 08:56:38;;;;;;;29.92;12.25;;;;;;;12.97;43.01;100395.34;4976475;28;20039;-62
2023/03/06 08:59:05;;;;;;;29.25;11.43;;;;;;;13.14;43.89;100430.31;4975213;28;20103;-62
2023/03/06 09:01:33;;;;;;;25.50;12.43;;;;;;;13.11;43.59;100411.81;4975584;28;20023;-62
2023/03/06 09:04:00;;;;;;;27.63;11.80;;;;;;;13.20;42.72;100421.63;4958907;28;20487;-61
2023/03/06 09:06:28;;;;;;;28.90;12.00;;;;;;;13.19;43.35;100422.63;4942878;28;20039;-62
2023/03/06 09:08:54;;;;;;;26.15;10.63;;;;;;;13.15;42.87;100421.22;4958628;28;20042;-61
2023/03/06 09:11:21;;;;;;;33.67;11.80;;;;;;;13.02;43.44;100418.06;4958822;28;20505;-61
2023/03/06 09:13:46;;;;;;;25.02;10.77;;;;;;;13.11;42.40;100425.25;4958498;28;20122;-62
2023/03/06 09:16:11;;;;;;;26.35;11.32;;;;;;;13.09;43.28;100421.84;4958691;28;20047;-62
2023/03/06 09:18:37;;;;;;;31.02;11.93;;;;;;;13.04;42.96;100424.13;4958590;28;20039;-62
2023/03/06 09:21:03;;;;;;;29.85;11.30;;;;;;;13.08;43.60;100430.94;4974843;28;20042;-61
2023/03/06 09:23:30;;;;;;;25.55;10.40;;;;;;;13.08;42.91;100424.72;4974798;28;20039;-62
2023/03/06 09:25:59;;;;;;;26.63;11.23;;;;;;;13.00;43.10;100408.47;4974463;28;20047;-62
2023/03/06 09:28:24;;;;;;;27.60;10.75;;;;;;;13.01;43.50;100412.88;4974973;28;20049;-62
2023/03/06 09:30:50;;;;;;;30.50;11.63;;;;;;;13.10;42.88;100425.38;4974452;28;20046;-62
2023/03/06 09:33:16;;;;;;;24.25;10.00;;;;;;;13.00;43.17;100403.94;4942304;28;20066;-63
2023/03/06 09:35:56;;;;;;;29.20;12.13;;;;;;;13.19;43.05;100427.16;4958365;28;20486;-61
2023/03/06 09:38:23;;;;;;;24.42;10.13;;;;;;;13.11;43.49;100419.03;4958224;28;20038;-62
2023/03/06 09:41:04;;;;;;;21.60;10.13;;;;;;;13.11;43.40;100424.41;4958655;28;20065;-62
2023/03/06 09:43:38;;;;;;;25.20;9.88;;;;;;;13.15;43.66;100421.22;4975741;28;20051;-62
2023/03/06 09:46:22;;;;;;;24.85;10.35;;;;;;;13.12;42.97;100432.28;4958277;28;20038;-62
2023/03/06 09:48:51;;;;;;;22.13;9.07;;;;;;;13.11;43.90;100435.16;4974144;28;20045;-62
2023/03/06 09:51:17;;;;;;;24.58;10.35;;;;;;;13.00;43.47;100414.69;4990302;28;20038;-61
2023/03/06 09:54:01;;;;;;;26.48;11.52;;;;;;;13.10;43.48;100434.31;4974127;28;20039;-61
2023/03/06 09:56:29;;;;;;;25.80;9.77;;;;;;;13.08;42.62;100433.63;4974031;28;20043;-61
2023/03/06 09:59:01;;;;;;;25.10;9.32;;;;;;;13.01;42.91;100419.06;4974057;28;20069;-62
2023/03/06 10:01:30;;;;;;;23.40;9.40;;;;;;;12.99;42.76;100417.53;4975646;28;20027;-61
2023/03/06 10:04:41;;;;;;;26.83;9.13;;;;;;;13.10;42.86;100431.63;4957794;28;20094;-61
2023/03/06 10:07:18;;;;;;;26.95;10.05;;;;;;;13.10;43.58;100430.75;4974888;28;20082;-62
2023/03/06 10:10:00;;;;;;;22.33;9.68;;;;;;;13.08;42.87;100436.31;4957569;28;20066;-62
2023/03/06 10:12:34;;;;;;;25.20;9.82;;;;;;;13.08;43.17;100430.94;4970639;28;20093;-62
2023/03/06 10:15:21;;;;;;;30.42;9.90;;;;;;;13.08;42.69;100433.63;4973416;28;20046;-62
2023/03/06 10:17:47;;;;;;;28.35;10.05;;;;;;;13.07;43.85;100425.66;4973615;28;20063;-61
2023/03/06 10:20:25;;;;;;;24.48;9.85;;;;;;;13.09;43.48;100426.41;4974691;28;20062;-62
2023/03/06 10:23:03;;;;;;;25.45;9.63;;;;;;;13.00;42.60;100411.16;4975098;28;20030;-62
2023/03/06 10:25:42;;;;;;;26.60;10.40;;;;;;;12.99;43.40;100415.69;4988827;28;20102;-62
2023/03/06 10:28:26;;;;;;;26.27;10.73;;;;;;;13.09;42.44;100421.84;4970076;28;20110;-62
2023/03/06 10:31:06;;;;;;;19.85;9.35;;;;;;;13.09;43.15;100427.22;4971104;28;20070;-62
2023/03/06 10:33:46;;;;;;;23.13;8.98;;;;;;;13.12;42.41;100421.53;4957147;28;20555;-61
2023/03/06 10:36:17;;;;;;;22.30;9.68;;;;;;;13.15;43.49;100421.22;4974584;28;20034;-62
2023/03/06 10:38:43;;;;;;;24.05;10.05;;;;;;;13.14;43.15;100424.94;4957452;28;20039;-61
2023/03/06 10:41:12;;;;;;;24.42;9.32;;;;;;;13.18;43.34;100434.38;4973560;28;20059;-63
2023/03/06 10:43:42;;;;;;;22.67;10.38;;;;;;;13.13;42.98;100417.88;4973482;28;20403;-61
2023/03/06 10:46:10;;;;;;;24.08;10.77;;;;;;;13.27;43.13;100429.91;4973120;28;20066;-61
2023/03/06 10:48:37;;;;;;;25.90;9.80;;;;;;;13.30;42.57;100430.44;4957003;28;20560;-62
2023/03/06 10:51:20;;;;;;;23.05;9.50;;;;;;;13.32;42.71;100425.75;4973199;28;20122;-62
2023/03/06 10:53:50;;;;;;;20.55;7.63;;;;;;;13.34;42.72;100430.97;4972987;28;20146;-61
2023/03/06 10:56:43;;;;;;;18.92;8.50;;;;;;;13.35;42.58;100424.59;4974345;28;20046;-63
2023/03/06 10:59:21;;;;;;;19.30;8.75;;;;;;;13.41;42.10;100422.13;4957157;28;20023;-62
2023/03/06 11:01:49;;;;;;;22.40;8.98;;;;;;;13.39;42.38;100413.38;4973411;28;20026;-62
2023/03/06 11:04:28;;;;;;;20.65;8.80;;;;;;;13.43;43.44;100425.50;4972727;28;20045;-62
2023/03/06 11:07:03;;;;;;;23.42;9.73;;;;;;;13.41;42.48;100419.44;4972773;28;20039;-62
2023/03/06 11:09:28;;;;;;;23.35;8.65;;;;;;;13.35;42.48;100409.28;4973964;28;20043;-62
2023/03/06 11:12:19;;;;;;;20.52;8.85;;;;;;;13.32;43.32;100400.69;4972813;28;20383;-62
2023/03/06 11:14:44;;;;;;;22.50;9.90;;;;;;;13.29;42.94;100401.00;4989058;28;20061;-62
2023/03/06 11:17:30;;;;;;;19.27;9.23;;;;;;;13.45;42.23;100421.81;4956777;28;20553;-62